sensor_id;sensor_type;location;lat;lon;timestamp;pressure;altitude;pressure_sealevel;temperature;humidity
30819;BME280;17546;42.674;23.284;2023-07-16T00:00:06;94881.00;;;31.93;41.51
30819;BME280;17546;42.674;23.284;2023-07-16T00:02:34;94917.50;;;32.06;41.65
30819;BME280;17546;42.674;23.284;2023-07-16T00:05:00;94878.16;;;31.79;41.65
30819;BME280;17546;42.674;23.284;2023-07-16T00:07:25;94886.13;;;31.81;42.20
30819;BME280;17546;42.674;23.284;2023-07-16T00:12:26;94971.31;;;32.95;41.27
30819;BME280;17546;42.674;23.284;2023-07-16T00:14:52;94898.09;;;32.05;41.76
30819;BME280;17546;42.674;23.284;2023-07-16T00:17:17;94906.13;;;31.95;42.25
30819;BME280;17546;42.674;23.284;2023-07-16T00:19:43;94867.03;;;31.71;42.17
30819;BME280;17546;42.674;23.284;2023-07-16T00:22:08;94905.28;;;31.92;42.25
30819;BME280;17546;42.674;23.284;2023-07-16T00:24:34;94900.00;;;31.86;42.43
30819;BME280;17546;42.674;23.284;2023-07-16T00:27:00;94903.28;;;31.95;42.30
30819;BME280;17546;42.674;23.284;2023-07-16T00:29:25;94875.00;;;31.73;42.28
30819;BME280;17546;42.674;23.284;2023-07-16T00:31:51;94902.63;;;31.96;42.12
30819;BME280;17546;42.674;23.284;2023-07-16T00:34:17;94860.38;;;31.67;42.53
30819;BME280;17546;42.674;23.284;2023-07-16T00:36:42;94916.34;;;31.98;42.04
30819;BME280;17546;42.674;23.284;2023-07-16T00:39:11;94901.91;;;31.96;42.14
30819;BME280;17546;42.674;23.284;2023-07-16T00:41:37;94910.38;;;31.94;42.41
30819;BME280;17546;42.674;23.284;2023-07-16T00:46:37;94963.28;;;32.78;42.09
30819;BME280;17546;42.674;23.284;2023-07-16T00:49:03;94856.47;;;31.46;42.96
30819;BME280;17546;42.674;23.284;2023-07-16T00:51:37;94907.88;;;32.00;42.88
30819;BME280;17546;42.674;23.284;2023-07-16T00:54:03;94857.84;;;31.45;42.69
30819;BME280;17546;42.674;23.284;2023-07-16T00:56:29;94899.06;;;31.68;43.02
30819;BME280;17546;42.674;23.284;2023-07-16T00:58:55;94896.84;;;31.53;43.07
30819;BME280;17546;42.674;23.284;2023-07-16T01:04:06;94966.22;;;32.64;42.26
30819;BME280;17546;42.674;23.284;2023-07-16T01:06:36;94966.28;;;31.95;42.98
30819;BME280;17546;42.674;23.284;2023-07-16T01:11:38;94962.97;;;32.42;42.13
30819;BME280;17546;42.674;23.284;2023-07-16T01:14:05;94963.53;;;31.97;43.06
30819;BME280;17546;42.674;23.284;2023-07-16T01:16:32;94875.00;;;31.45;42.75
30819;BME280;17546;42.674;23.284;2023-07-16T01:18:57;94905.84;;;31.75;42.73
30819;BME280;17546;42.674;23.284;2023-07-16T01:21:27;94884.13;;;31.56;42.37
30819;BME280;17546;42.674;23.284;2023-07-16T01:31:55;94865.66;;;31.59;42.27
30819;BME280;17546;42.674;23.284;2023-07-16T01:34:22;94887.81;;;31.72;42.27
30819;BME280;17546;42.674;23.284;2023-07-16T01:36:50;94911.25;;;31.82;42.21
30819;BME280;17546;42.674;23.284;2023-07-16T01:39:19;94884.31;;;31.74;42.49
30819;BME280;17546;42.674;23.284;2023-07-16T01:41:45;94933.41;;;31.96;42.81
30819;BME280;17546;42.674;23.284;2023-07-16T01:44:11;94871.53;;;31.47;42.83
30819;BME280;17546;42.674;23.284;2023-07-16T01:49:11;94968.44;;;32.51;41.91
30819;BME280;17546;42.674;23.284;2023-07-16T01:51:38;94895.97;;;31.64;42.63
30819;BME280;17546;42.674;23.284;2023-07-16T01:54:04;94897.47;;;31.65;42.90
30819;BME280;17546;42.674;23.284;2023-07-16T01:56:30;94901.41;;;31.71;42.60
30819;BME280;17546;42.674;23.284;2023-07-16T01:58:55;94894.19;;;31.57;42.62
30819;BME280;17546;42.674;23.284;2023-07-16T02:01:21;94878.19;;;31.52;42.49
30819;BME280;17546;42.674;23.284;2023-07-16T02:03:47;94876.50;;;31.46;42.43
30819;BME280;17546;42.674;23.284;2023-07-16T02:11:23;94892.28;;;31.61;42.03
30819;BME280;17546;42.674;23.284;2023-07-16T02:13:49;94896.41;;;31.58;41.68
30819;BME280;17546;42.674;23.284;2023-07-16T02:16:15;94912.13;;;31.71;41.85
30819;BME280;17546;42.674;23.284;2023-07-16T02:18:40;94880.22;;;31.49;41.61
30819;BME280;17546;42.674;23.284;2023-07-16T02:21:09;94885.28;;;31.50;41.45
30819;BME280;17546;42.674;23.284;2023-07-16T02:23:35;94917.63;;;31.67;41.67
30819;BME280;17546;42.674;23.284;2023-07-16T02:26:01;94886.34;;;31.43;41.32
30819;BME280;17546;42.674;23.284;2023-07-16T02:28:26;94882.50;;;31.25;40.89
30819;BME280;17546;42.674;23.284;2023-07-16T02:30:55;94883.34;;;31.41;41.00
30819;BME280;17546;42.674;23.284;2023-07-16T02:33:21;94902.84;;;31.31;41.28
30819;BME280;17546;42.674;23.284;2023-07-16T02:35:52;94874.34;;;31.33;41.02
30819;BME280;17546;42.674;23.284;2023-07-16T02:38:18;94936.81;;;31.64;40.90
30819;BME280;17546;42.674;23.284;2023-07-16T02:40:44;94900.53;;;31.41;41.00
30819;BME280;17546;42.674;23.284;2023-07-16T02:43:17;94894.25;;;31.17;40.97
30819;BME280;17546;42.674;23.284;2023-07-16T02:51:00;94884.50;;;31.22;40.46
30819;BME280;17546;42.674;23.284;2023-07-16T02:53:25;94902.44;;;31.37;41.08
30819;BME280;17546;42.674;23.284;2023-07-16T02:55:54;94900.41;;;31.39;40.77
30819;BME280;17546;42.674;23.284;2023-07-16T02:58:23;94921.53;;;31.46;41.04
30819;BME280;17546;42.674;23.284;2023-07-16T03:00:48;94901.78;;;31.38;40.86
30819;BME280;17546;42.674;23.284;2023-07-16T03:03:18;94955.28;;;31.75;40.88
30819;BME280;17546;42.674;23.284;2023-07-16T03:05:46;94906.47;;;31.45;40.87
30819;BME280;17546;42.674;23.284;2023-07-16T03:08:12;94904.75;;;31.40;40.85
30819;BME280;17546;42.674;23.284;2023-07-16T03:10:41;94892.25;;;31.34;40.72
30819;BME280;17546;42.674;23.284;2023-07-16T03:13:07;94902.38;;;31.48;40.84
30819;BME280;17546;42.674;23.284;2023-07-16T03:18:10;94992.59;;;32.19;40.86
30819;BME280;17546;42.674;23.284;2023-07-16T03:20:36;94891.31;;;31.29;40.85
30819;BME280;17546;42.674;23.284;2023-07-16T03:23:02;94911.81;;;31.51;40.69
30819;BME280;17546;42.674;23.284;2023-07-16T03:25:28;94898.00;;;31.47;40.73
30819;BME280;17546;42.674;23.284;2023-07-16T03:27:54;94917.19;;;31.45;40.84
30819;BME280;17546;42.674;23.284;2023-07-16T03:30:23;94908.69;;;31.33;40.86
30819;BME280;17546;42.674;23.284;2023-07-16T03:32:48;94909.09;;;31.41;40.92
30819;BME280;17546;42.674;23.284;2023-07-16T03:35:17;94937.22;;;31.59;41.04
30819;BME280;17546;42.674;23.284;2023-07-16T03:37:42;94943.41;;;31.53;40.90
30819;BME280;17546;42.674;23.284;2023-07-16T03:40:15;94899.03;;;31.40;40.93
30819;BME280;17546;42.674;23.284;2023-07-16T03:42:42;94944.34;;;31.58;40.81
30819;BME280;17546;42.674;23.284;2023-07-16T03:45:09;94948.34;;;31.53;40.69
30819;BME280;17546;42.674;23.284;2023-07-16T03:47:35;94927.97;;;31.33;40.89
30819;BME280;17546;42.674;23.284;2023-07-16T03:50:03;94923.31;;;31.39;40.72
30819;BME280;17546;42.674;23.284;2023-07-16T03:52:29;94929.72;;;31.52;40.30
30819;BME280;17546;42.674;23.284;2023-07-16T03:54:56;94952.81;;;31.69;40.63
30819;BME280;17546;42.674;23.284;2023-07-16T03:57:21;94941.25;;;31.54;40.99
30819;BME280;17546;42.674;23.284;2023-07-16T03:59:47;94933.75;;;31.46;40.68
30819;BME280;17546;42.674;23.284;2023-07-16T04:02:16;94939.69;;;31.64;40.70
30819;BME280;17546;42.674;23.284;2023-07-16T04:04:42;95012.00;;;31.92;40.84
30819;BME280;17546;42.674;23.284;2023-07-16T04:07:10;94963.22;;;31.63;40.66
30819;BME280;17546;42.674;23.284;2023-07-16T04:09:38;94921.94;;;31.26;40.92
30819;BME280;17546;42.674;23.284;2023-07-16T04:12:05;94955.56;;;31.54;41.08
30819;BME280;17546;42.674;23.284;2023-07-16T04:14:33;94920.53;;;31.41;41.07
30819;BME280;17546;42.674;23.284;2023-07-16T04:16:59;94908.88;;;31.23;40.99
30819;BME280;17546;42.674;23.284;2023-07-16T04:19:27;94959.94;;;31.68;40.92
30819;BME280;17546;42.674;23.284;2023-07-16T04:22:03;94932.69;;;31.54;40.58
30819;BME280;17546;42.674;23.284;2023-07-16T04:24:29;94941.25;;;31.54;40.61
30819;BME280;17546;42.674;23.284;2023-07-16T04:26:55;95023.16;;;32.14;40.72
30819;BME280;17546;42.674;23.284;2023-07-16T04:29:21;94932.97;;;31.46;40.63
30819;BME280;17546;42.674;23.284;2023-07-16T04:31:47;94937.44;;;31.49;40.82
30819;BME280;17546;42.674;23.284;2023-07-16T04:34:12;95020.06;;;31.96;40.32
30819;BME280;17546;42.674;23.284;2023-07-16T04:36:48;94957.94;;;31.71;40.35
30819;BME280;17546;42.674;23.284;2023-07-16T04:39:14;94958.09;;;31.47;40.26
30819;BME280;17546;42.674;23.284;2023-07-16T04:44:15;95026.44;;;31.95;40.26
30819;BME280;17546;42.674;23.284;2023-07-16T04:46:40;94979.94;;;31.55;40.72
30819;BME280;17546;42.674;23.284;2023-07-16T04:49:13;94938.63;;;30.79;41.01
30819;BME280;17546;42.674;23.284;2023-07-16T04:51:39;94949.50;;;30.94;40.85
30819;BME280;17546;42.674;23.284;2023-07-16T04:54:05;94963.34;;;30.86;41.49
30819;BME280;17546;42.674;23.284;2023-07-16T04:56:31;94939.06;;;30.61;41.31
30819;BME280;17546;42.674;23.284;2023-07-16T04:58:56;94955.50;;;30.86;41.29
30819;BME280;17546;42.674;23.284;2023-07-16T05:01:22;95042.84;;;31.66;41.14
30819;BME280;17546;42.674;23.284;2023-07-16T05:03:48;94964.94;;;31.28;41.31
30819;BME280;17546;42.674;23.284;2023-07-16T05:06:14;95042.88;;;31.94;41.13
30819;BME280;17546;42.674;23.284;2023-07-16T05:08:39;95035.72;;;31.54;41.05
30819;BME280;17546;42.674;23.284;2023-07-16T05:11:05;94941.03;;;30.96;41.86
30819;BME280;17546;42.674;23.284;2023-07-16T05:13:31;94961.44;;;31.30;40.96
30819;BME280;17546;42.674;23.284;2023-07-16T05:15:56;94986.63;;;31.45;41.56
30819;BME280;17546;42.674;23.284;2023-07-16T05:18:22;94973.28;;;31.50;41.19
30819;BME280;17546;42.674;23.284;2023-07-16T05:20:48;94961.72;;;31.48;40.58
30819;BME280;17546;42.674;23.284;2023-07-16T05:23:17;94961.84;;;30.85;40.89
30819;BME280;17546;42.674;23.284;2023-07-16T05:25:47;94939.75;;;30.99;41.00
30819;BME280;17546;42.674;23.284;2023-07-16T05:28:17;94981.66;;;31.20;40.85
30819;BME280;17546;42.674;23.284;2023-07-16T05:33:34;95046.22;;;31.63;40.82
30819;BME280;17546;42.674;23.284;2023-07-16T05:36:02;94971.66;;;31.07;40.98
30819;BME280;17546;42.674;23.284;2023-07-16T05:38:28;94966.84;;;31.24;41.11
30819;BME280;17546;42.674;23.284;2023-07-16T05:40:53;94963.38;;;31.39;40.98
30819;BME280;17546;42.674;23.284;2023-07-16T05:43:19;94967.63;;;31.38;41.16
30819;BME280;17546;42.674;23.284;2023-07-16T05:48:20;94974.50;;;31.33;40.91
30819;BME280;17546;42.674;23.284;2023-07-16T05:50:45;94999.69;;;31.48;40.48
30819;BME280;17546;42.674;23.284;2023-07-16T05:53:11;95055.34;;;31.59;41.08
30819;BME280;17546;42.674;23.284;2023-07-16T05:55:39;95059.84;;;31.90;40.41
30819;BME280;17546;42.674;23.284;2023-07-16T05:58:04;95058.41;;;32.03;40.63
30819;BME280;17546;42.674;23.284;2023-07-16T06:00:30;95061.16;;;32.15;40.69
30819;BME280;17546;42.674;23.284;2023-07-16T06:02:55;95052.31;;;31.83;40.52
30819;BME280;17546;42.674;23.284;2023-07-16T06:05:21;95062.41;;;31.84;40.29
30819;BME280;17546;42.674;23.284;2023-07-16T06:07:48;95065.09;;;31.68;40.68
30819;BME280;17546;42.674;23.284;2023-07-16T06:10:13;95045.28;;;31.86;40.89
30819;BME280;17546;42.674;23.284;2023-07-16T06:12:39;94955.28;;;31.22;41.06
30819;BME280;17546;42.674;23.284;2023-07-16T06:15:04;94995.78;;;31.30;40.74
30819;BME280;17546;42.674;23.284;2023-07-16T06:40:04;95049.97;;;33.65;38.20
30819;BME280;17546;42.674;23.284;2023-07-16T06:42:30;95054.41;;;33.84;37.59
30819;BME280;17546;42.674;23.284;2023-07-16T06:44:56;95052.53;;;34.39;36.98
30819;BME280;17546;42.674;23.284;2023-07-16T06:47:21;95018.81;;;34.07;36.45
30819;BME280;17546;42.674;23.284;2023-07-16T06:49:47;95023.09;;;34.22;36.25
30819;BME280;17546;42.674;23.284;2023-07-16T06:52:22;95032.88;;;34.49;36.59
30819;BME280;17546;42.674;23.284;2023-07-16T06:54:50;95045.63;;;34.62;35.91
30819;BME280;17546;42.674;23.284;2023-07-16T06:57:16;95020.59;;;34.48;35.98
30819;BME280;17546;42.674;23.284;2023-07-16T06:59:41;95034.34;;;35.02;35.82
30819;BME280;17546;42.674;23.284;2023-07-16T07:02:06;95001.81;;;34.97;35.56
30819;BME280;17546;42.674;23.284;2023-07-16T07:04:32;95026.44;;;35.38;35.29
30819;BME280;17546;42.674;23.284;2023-07-16T07:06:57;95034.91;;;35.52;34.51
30819;BME280;17546;42.674;23.284;2023-07-16T07:09:42;95010.44;;;34.97;35.01
30819;BME280;17546;42.674;23.284;2023-07-16T07:12:08;95054.09;;;35.63;34.68
30819;BME280;17546;42.674;23.284;2023-07-16T07:14:33;95048.75;;;35.93;34.96
30819;BME280;17546;42.674;23.284;2023-07-16T07:17:02;95044.69;;;36.00;34.63
30819;BME280;17546;42.674;23.284;2023-07-16T07:19:27;95040.41;;;36.02;34.19
30819;BME280;17546;42.674;23.284;2023-07-16T07:21:53;95038.19;;;36.00;34.41
30819;BME280;17546;42.674;23.284;2023-07-16T07:24:26;95021.69;;;36.03;34.22
30819;BME280;17546;42.674;23.284;2023-07-16T07:26:51;95016.84;;;36.27;34.59
30819;BME280;17546;42.674;23.284;2023-07-16T07:29:17;95032.50;;;36.62;33.92
30819;BME280;17546;42.674;23.284;2023-07-16T07:31:42;95036.25;;;36.67;33.42
30819;BME280;17546;42.674;23.284;2023-07-16T07:34:10;95024.69;;;36.87;32.82
30819;BME280;17546;42.674;23.284;2023-07-16T07:36:35;95049.03;;;37.03;33.50
30819;BME280;17546;42.674;23.284;2023-07-16T07:39:01;95018.78;;;37.05;33.09
30819;BME280;17546;42.674;23.284;2023-07-16T07:41:26;95055.41;;;37.66;32.86
30819;BME280;17546;42.674;23.284;2023-07-16T07:43:51;95027.13;;;37.62;32.49
30819;BME280;17546;42.674;23.284;2023-07-16T07:46:17;95039.59;;;37.93;32.86
30819;BME280;17546;42.674;23.284;2023-07-16T07:48:42;95053.72;;;37.83;31.79
30819;BME280;17546;42.674;23.284;2023-07-16T07:51:08;95047.94;;;37.83;32.08
30819;BME280;17546;42.674;23.284;2023-07-16T07:53:41;95045.59;;;38.26;31.74
30819;BME280;17546;42.674;23.284;2023-07-16T07:56:07;95023.97;;;37.78;31.59
30819;BME280;17546;42.674;23.284;2023-07-16T07:58:32;95040.19;;;38.14;32.20
30819;BME280;17546;42.674;23.284;2023-07-16T08:01:04;95041.25;;;38.51;30.49
30819;BME280;17546;42.674;23.284;2023-07-16T08:03:30;95043.69;;;38.36;30.70
30819;BME280;17546;42.674;23.284;2023-07-16T08:05:55;95048.09;;;38.37;30.78
30819;BME280;17546;42.674;23.284;2023-07-16T08:08:43;95043.81;;;38.67;30.97
30819;BME280;17546;42.674;23.284;2023-07-16T08:11:08;95045.25;;;38.94;30.53
30819;BME280;17546;42.674;23.284;2023-07-16T08:13:34;95012.28;;;39.07;30.92
30819;BME280;17546;42.674;23.284;2023-07-16T08:16:02;95015.19;;;39.07;30.12
30819;BME280;17546;42.674;23.284;2023-07-16T08:18:27;95039.44;;;39.22;29.91
30819;BME280;17546;42.674;23.284;2023-07-16T08:20:53;95015.66;;;38.69;30.90
30819;BME280;17546;42.674;23.284;2023-07-16T08:23:39;95044.31;;;39.13;29.21
30819;BME280;17546;42.674;23.284;2023-07-16T08:26:04;95036.75;;;38.19;29.99
30819;BME280;17546;42.674;23.284;2023-07-16T08:28:30;95029.47;;;38.18;30.30
30819;BME280;17546;42.674;23.284;2023-07-16T08:34:42;95044.22;;;38.29;31.01
30819;BME280;17546;42.674;23.284;2023-07-16T08:37:07;95010.47;;;38.37;30.72
30819;BME280;17546;42.674;23.284;2023-07-16T08:39:33;95047.84;;;39.40;29.55
30819;BME280;17546;42.674;23.284;2023-07-16T08:44:37;95018.38;;;39.19;28.59
30819;BME280;17546;42.674;23.284;2023-07-16T08:47:02;95021.66;;;39.66;29.12
30819;BME280;17546;42.674;23.284;2023-07-16T08:49:33;95028.91;;;39.99;28.88
30819;BME280;17546;42.674;23.284;2023-07-16T08:52:03;94995.91;;;39.48;28.61
30819;BME280;17546;42.674;23.284;2023-07-16T08:54:29;95010.19;;;39.72;28.34
30819;BME280;17546;42.674;23.284;2023-07-16T08:56:55;95027.34;;;39.94;28.80
30819;BME280;17546;42.674;23.284;2023-07-16T08:59:21;95007.19;;;40.00;28.71
30819;BME280;17546;42.674;23.284;2023-07-16T09:01:47;95033.44;;;39.12;28.62
30819;BME280;17546;42.674;23.284;2023-07-16T09:04:17;95018.88;;;39.40;28.79
30819;BME280;17546;42.674;23.284;2023-07-16T09:06:43;95006.91;;;39.54;29.32
30819;BME280;17546;42.674;23.284;2023-07-16T09:09:10;95024.88;;;39.48;29.24
30819;BME280;17546;42.674;23.284;2023-07-16T09:11:46;94991.59;;;39.49;28.81
30819;BME280;17546;42.674;23.284;2023-07-16T09:14:28;95012.31;;;39.70;28.61
30819;BME280;17546;42.674;23.284;2023-07-16T09:16:53;94989.34;;;39.80;28.65
30819;BME280;17546;42.674;23.284;2023-07-16T09:19:20;95019.34;;;39.93;28.88
30819;BME280;17546;42.674;23.284;2023-07-16T09:21:49;95012.41;;;40.08;27.92
30819;BME280;17546;42.674;23.284;2023-07-16T09:24:16;95013.66;;;39.64;28.97
30819;BME280;17546;42.674;23.284;2023-07-16T09:27:07;95012.19;;;39.96;27.83
30819;BME280;17546;42.674;23.284;2023-07-16T09:29:38;94993.34;;;39.62;28.55
30819;BME280;17546;42.674;23.284;2023-07-16T09:32:04;94989.06;;;40.00;28.00
30819;BME280;17546;42.674;23.284;2023-07-16T09:34:34;94976.38;;;40.19;27.56
30819;BME280;17546;42.674;23.284;2023-07-16T09:37:01;95000.13;;;40.10;27.78
30819;BME280;17546;42.674;23.284;2023-07-16T09:39:28;95016.22;;;40.53;28.01
30819;BME280;17546;42.674;23.284;2023-07-16T09:41:57;95014.44;;;40.74;27.39
30819;BME280;17546;42.674;23.284;2023-07-16T09:44:23;95009.00;;;40.95;27.17
30819;BME280;17546;42.674;23.284;2023-07-16T09:46:48;94975.41;;;40.83;27.26
30819;BME280;17546;42.674;23.284;2023-07-16T09:49:28;95003.53;;;41.15;27.20
30819;BME280;17546;42.674;23.284;2023-07-16T09:51:56;95001.34;;;41.14;27.82
30819;BME280;17546;42.674;23.284;2023-07-16T09:54:24;94985.59;;;40.46;27.04
30819;BME280;17546;42.674;23.284;2023-07-16T09:57:02;94997.66;;;40.30;27.36
30819;BME280;17546;42.674;23.284;2023-07-16T09:59:31;94970.31;;;40.82;27.23
30819;BME280;17546;42.674;23.284;2023-07-16T10:01:58;94994.44;;;40.93;26.91
30819;BME280;17546;42.674;23.284;2023-07-16T10:04:40;94940.38;;;40.71;26.76
30819;BME280;17546;42.674;23.284;2023-07-16T10:07:05;94981.28;;;41.32;26.35
30819;BME280;17546;42.674;23.284;2023-07-16T10:09:51;94984.75;;;41.22;27.15
30819;BME280;17546;42.674;23.284;2023-07-16T10:12:18;94980.72;;;41.44;27.34
30819;BME280;17546;42.674;23.284;2023-07-16T10:14:51;94981.19;;;41.75;27.71
30819;BME280;17546;42.674;23.284;2023-07-16T10:17:21;94956.91;;;41.56;26.18
30819;BME280;17546;42.674;23.284;2023-07-16T10:22:37;94979.75;;;41.78;26.42
30819;BME280;17546;42.674;23.284;2023-07-16T10:27:45;94978.88;;;41.18;26.61
30819;BME280;17546;42.674;23.284;2023-07-16T10:30:44;94976.66;;;41.61;26.51
30819;BME280;17546;42.674;23.284;2023-07-16T10:33:12;94972.16;;;41.54;26.26
30819;BME280;17546;42.674;23.284;2023-07-16T10:35:41;94966.47;;;41.62;25.71
30819;BME280;17546;42.674;23.284;2023-07-16T10:38:06;94970.16;;;41.67;25.83
30819;BME280;17546;42.674;23.284;2023-07-16T10:40:32;94941.78;;;41.63;25.81
30819;BME280;17546;42.674;23.284;2023-07-16T10:42:57;94960.41;;;41.46;26.26
30819;BME280;17546;42.674;23.284;2023-07-16T10:45:23;94961.16;;;41.46;25.96
30819;BME280;17546;42.674;23.284;2023-07-16T10:48:15;94972.28;;;41.62;25.61
30819;BME280;17546;42.674;23.284;2023-07-16T10:50:40;94960.00;;;41.68;26.45
30819;BME280;17546;42.674;23.284;2023-07-16T10:53:06;94964.50;;;41.77;26.50
30819;BME280;17546;42.674;23.284;2023-07-16T10:55:52;94965.06;;;41.65;25.07
30819;BME280;17546;42.674;23.284;2023-07-16T10:58:18;94957.19;;;41.25;25.17
30819;BME280;17546;42.674;23.284;2023-07-16T11:00:44;94956.31;;;41.63;25.20
30819;BME280;17546;42.674;23.284;2023-07-16T11:03:10;94962.06;;;41.59;25.17
30819;BME280;17546;42.674;23.284;2023-07-16T11:05:35;94938.94;;;41.19;24.79
30819;BME280;17546;42.674;23.284;2023-07-16T11:08:01;94947.91;;;40.88;24.98
30819;BME280;17546;42.674;23.284;2023-07-16T11:10:35;94946.03;;;41.07;24.81
30819;BME280;17546;42.674;23.284;2023-07-16T11:13:00;94951.47;;;41.32;24.91
30819;BME280;17546;42.674;23.284;2023-07-16T11:15:33;94927.44;;;40.38;25.80
30819;BME280;17546;42.674;23.284;2023-07-16T11:17:58;94937.97;;;41.02;25.58
30819;BME280;17546;42.674;23.284;2023-07-16T11:20:24;94946.16;;;41.14;24.52
30819;BME280;17546;42.674;23.284;2023-07-16T11:22:51;94942.81;;;41.34;24.67
30819;BME280;17546;42.674;23.284;2023-07-16T11:25:17;94947.06;;;41.26;24.08
30819;BME280;17546;42.674;23.284;2023-07-16T11:27:43;94914.13;;;40.24;23.87
30819;BME280;17546;42.674;23.284;2023-07-16T11:30:14;94934.78;;;40.43;24.91
30819;BME280;17546;42.674;23.284;2023-07-16T11:32:46;94932.03;;;40.13;25.11
30819;BME280;17546;42.674;23.284;2023-07-16T11:35:16;94930.38;;;40.40;24.71
30819;BME280;17546;42.674;23.284;2023-07-16T11:37:43;94925.91;;;40.73;25.04
30819;BME280;17546;42.674;23.284;2023-07-16T11:40:10;94911.25;;;40.67;24.51
30819;BME280;17546;42.674;23.284;2023-07-16T11:42:38;94929.53;;;41.20;24.33
30819;BME280;17546;42.674;23.284;2023-07-16T11:45:05;94925.56;;;41.48;23.99
30819;BME280;17546;42.674;23.284;2023-07-16T11:47:31;94929.50;;;41.18;24.46
30819;BME280;17546;42.674;23.284;2023-07-16T11:49:57;94908.91;;;41.02;24.83
30819;BME280;17546;42.674;23.284;2023-07-16T11:52:24;94896.31;;;41.34;25.15
30819;BME280;17546;42.674;23.284;2023-07-16T11:54:51;94921.78;;;41.37;24.98
30819;BME280;17546;42.674;23.284;2023-07-16T11:57:17;94904.78;;;41.68;24.81
30819;BME280;17546;42.674;23.284;2023-07-16T11:59:43;94912.59;;;41.04;24.62
30819;BME280;17546;42.674;23.284;2023-07-16T12:02:09;94912.41;;;41.43;23.90
30819;BME280;17546;42.674;23.284;2023-07-16T12:04:34;94918.56;;;41.65;23.59
30819;BME280;17546;42.674;23.284;2023-07-16T12:07:35;94914.97;;;41.71;23.41
30819;BME280;17546;42.674;23.284;2023-07-16T12:10:01;94884.44;;;41.68;24.07
30819;BME280;17546;42.674;23.284;2023-07-16T12:12:32;94914.44;;;41.87;23.42
30819;BME280;17546;42.674;23.284;2023-07-16T12:14:58;94897.75;;;41.87;24.67
30819;BME280;17546;42.674;23.284;2023-07-16T12:17:24;94911.63;;;41.95;24.05
30819;BME280;17546;42.674;23.284;2023-07-16T12:19:54;94916.06;;;42.00;24.31
30819;BME280;17546;42.674;23.284;2023-07-16T12:22:21;94878.06;;;41.84;23.92
30819;BME280;17546;42.674;23.284;2023-07-16T12:24:47;94893.88;;;41.68;23.09
30819;BME280;17546;42.674;23.284;2023-07-16T12:27:18;94902.78;;;41.83;23.42
30819;BME280;17546;42.674;23.284;2023-07-16T12:29:44;94879.44;;;41.75;24.17
30819;BME280;17546;42.674;23.284;2023-07-16T12:32:09;94895.00;;;42.02;24.14
30819;BME280;17546;42.674;23.284;2023-07-16T12:34:36;94876.09;;;41.99;23.44
30819;BME280;17546;42.674;23.284;2023-07-16T12:37:02;94884.63;;;41.86;23.12
30819;BME280;17546;42.674;23.284;2023-07-16T12:39:28;94894.41;;;42.14;23.69
30819;BME280;17546;42.674;23.284;2023-07-16T12:42:21;94893.66;;;42.13;24.59
30819;BME280;17546;42.674;23.284;2023-07-16T12:44:46;94896.63;;;42.17;23.06
30819;BME280;17546;42.674;23.284;2023-07-16T12:47:12;94888.63;;;42.18;24.18
30819;BME280;17546;42.674;23.284;2023-07-16T12:49:37;94893.34;;;42.51;24.04
30819;BME280;17546;42.674;23.284;2023-07-16T12:52:03;94866.19;;;42.28;24.01
30819;BME280;17546;42.674;23.284;2023-07-16T12:57:50;94880.19;;;42.48;21.64
30819;BME280;17546;42.674;23.284;2023-07-16T13:00:16;94863.63;;;41.92;22.13
30819;BME280;17546;42.674;23.284;2023-07-16T13:03:21;94887.34;;;42.37;22.41
30819;BME280;17546;42.674;23.284;2023-07-16T13:05:47;94870.69;;;41.73;21.55
30819;BME280;17546;42.674;23.284;2023-07-16T13:08:12;94855.38;;;41.70;22.32
30819;BME280;17546;42.674;23.284;2023-07-16T13:11:18;94882.56;;;41.97;21.74
30819;BME280;17546;42.674;23.284;2023-07-16T13:13:43;94876.72;;;41.93;22.16
30819;BME280;17546;42.674;23.284;2023-07-16T13:16:09;94841.31;;;41.48;21.84
30819;BME280;17546;42.674;23.284;2023-07-16T13:18:34;94869.41;;;41.90;21.97
30819;BME280;17546;42.674;23.284;2023-07-16T13:21:01;94868.66;;;41.87;22.29
30819;BME280;17546;42.674;23.284;2023-07-16T13:23:26;94869.34;;;41.84;23.08
30819;BME280;17546;42.674;23.284;2023-07-16T13:25:52;94874.00;;;42.09;22.29
30819;BME280;17546;42.674;23.284;2023-07-16T13:28:19;94868.91;;;42.08;22.01
30819;BME280;17546;42.674;23.284;2023-07-16T13:30:45;94831.84;;;41.49;22.32
30819;BME280;17546;42.674;23.284;2023-07-16T13:33:10;94842.03;;;41.48;22.48
30819;BME280;17546;42.674;23.284;2023-07-16T13:35:58;94865.88;;;41.41;22.30
30819;BME280;17546;42.674;23.284;2023-07-16T13:38:26;94865.47;;;41.63;23.12
30819;BME280;17546;42.674;23.284;2023-07-16T13:40:52;94865.88;;;41.41;22.76
30819;BME280;17546;42.674;23.284;2023-07-16T13:43:17;94855.22;;;41.05;22.44
30819;BME280;17546;42.674;23.284;2023-07-16T13:45:42;94840.78;;;41.11;23.33
30819;BME280;17546;42.674;23.284;2023-07-16T13:48:24;94856.13;;;41.73;23.28
30819;BME280;17546;42.674;23.284;2023-07-16T13:50:50;94846.69;;;41.15;21.75
30819;BME280;17546;42.674;23.284;2023-07-16T13:53:15;94843.78;;;41.15;21.88
30819;BME280;17546;42.674;23.284;2023-07-16T13:55:56;94845.28;;;41.18;21.35
30819;BME280;17546;42.674;23.284;2023-07-16T13:58:22;94824.84;;;40.63;21.72
30819;BME280;17546;42.674;23.284;2023-07-16T14:00:47;94837.31;;;41.21;21.05
30819;BME280;17546;42.674;23.284;2023-07-16T14:03:12;94823.56;;;41.23;20.88
30819;BME280;17546;42.674;23.284;2023-07-16T14:05:38;94807.03;;;40.85;21.19
30819;BME280;17546;42.674;23.284;2023-07-16T14:08:07;94843.44;;;40.91;21.54
30819;BME280;17546;42.674;23.284;2023-07-16T14:10:55;94842.22;;;41.08;21.17
30819;BME280;17546;42.674;23.284;2023-07-16T14:13:20;94831.78;;;40.88;22.33